createdAt,value
2022-11-03T00:01:15.936Z,37.33
2022-11-03T00:03:44.837Z,37.63
2022-11-03T00:06:12.379Z,38.57
2022-11-03T00:08:41.815Z,37.20
2022-11-03T00:11:12.124Z,38.07
2022-11-03T00:13:42.545Z,37.67
2022-11-03T00:16:11.308Z,40.40
2022-11-03T00:18:39.572Z,39.00
2022-11-03T00:21:10.600Z,38.50
2022-11-03T00:23:40.236Z,40.20
2022-11-03T00:26:10.004Z,39.90
2022-11-03T00:28:38.774Z,38.00
2022-11-03T00:31:10.591Z,39.33
2022-11-03T00:33:39.320Z,40.30
2022-11-03T00:36:11.196Z,40.37
2022-11-03T00:38:39.157Z,38.40
2022-11-03T00:41:07.672Z,37.10
2022-11-03T00:43:36.811Z,37.00
2022-11-03T00:46:05.109Z,37.83
2022-11-03T00:48:34.003Z,37.40
2022-11-03T00:51:10.952Z,37.27
2022-11-03T00:53:40.000Z,36.70
2022-11-03T00:56:10.427Z,37.83
2022-11-03T00:58:38.032Z,37.20
2022-11-03T01:01:08.995Z,39.30
2022-11-03T01:03:39.783Z,39.87
2022-11-03T01:06:25.980Z,38.63
2022-11-03T01:08:55.872Z,37.50
2022-11-03T01:11:42.989Z,38.80
2022-11-03T01:14:12.127Z,39.97
2022-11-03T01:16:39.764Z,39.20
2022-11-03T01:19:07.887Z,38.80
2022-11-03T01:21:35.883Z,38.77
2022-11-03T01:24:06.132Z,39.60
2022-11-03T01:26:33.663Z,39.00
2022-11-03T01:29:01.997Z,38.80
2022-11-03T01:31:30.022Z,38.10
2022-11-03T01:33:58.226Z,38.43
2022-11-03T01:36:26.464Z,39.13
2022-11-03T01:38:55.805Z,37.00
2022-11-03T01:41:26.869Z,37.27
2022-11-03T01:44:26.423Z,36.83
2022-11-03T01:46:56.127Z,38.20
2022-11-03T01:49:28.216Z,37.93
2022-11-03T01:52:01.426Z,38.70
2022-11-03T01:54:30.838Z,38.50
2022-11-03T01:57:00.809Z,37.10
2022-11-03T01:59:29.161Z,37.60
2022-11-03T02:01:56.930Z,37.63
2022-11-03T02:04:29.776Z,38.27
2022-11-03T02:07:07.127Z,38.90
2022-11-03T02:09:34.664Z,38.20
2022-11-03T02:12:09.587Z,37.97
2022-11-03T02:14:43.209Z,38.87
2022-11-03T02:17:14.401Z,38.20
2022-11-03T02:19:47.454Z,38.33
2022-11-03T02:22:42.927Z,37.70
2022-11-03T02:25:18.299Z,37.23
2022-11-03T02:27:47.603Z,37.13
2022-11-03T02:30:15.332Z,37.90
2022-11-03T02:32:51.979Z,39.00
2022-11-03T02:35:25.424Z,39.03
2022-11-03T02:37:57.421Z,39.43
2022-11-03T02:40:28.901Z,37.53
2022-11-03T02:43:00.101Z,37.80
2022-11-03T02:45:29.552Z,37.40
2022-11-03T02:48:00.319Z,37.20
2022-11-03T02:50:29.542Z,38.07
2022-11-03T02:52:57.768Z,37.20
2022-11-03T02:55:34.883Z,36.50
2022-11-03T02:58:09.321Z,36.10
2022-11-03T03:00:44.453Z,37.50
2022-11-03T03:03:18.863Z,37.60
2022-11-03T03:05:48.856Z,37.00
2022-11-03T03:08:17.477Z,38.03
2022-11-03T03:10:47.817Z,37.20
2022-11-03T03:13:20.107Z,37.20
2022-11-03T03:15:53.456Z,37.73
2022-11-03T03:18:27.579Z,37.83
2022-11-03T03:20:59.400Z,39.73
2022-11-03T03:23:32.284Z,38.30
2022-11-03T03:26:03.251Z,38.43
2022-11-03T03:28:37.274Z,36.90
2022-11-03T03:31:09.260Z,38.30
2022-11-03T03:33:40.759Z,38.00
2022-11-03T03:36:20.592Z,38.43
2022-11-03T03:38:55.475Z,37.87
2022-11-03T03:41:24.743Z,37.20
2022-11-03T03:43:56.624Z,37.57
2022-11-03T03:46:27.716Z,36.43
2022-11-03T03:48:55.309Z,36.80
2022-11-03T03:51:26.854Z,38.17
2022-11-03T03:53:55.484Z,38.20
2022-11-03T03:56:28.349Z,38.17
2022-11-03T03:58:57.232Z,37.50
2022-11-03T04:01:24.869Z,37.00
2022-11-03T04:03:52.497Z,36.80
2022-11-03T04:06:20.036Z,36.93
2022-11-03T04:08:47.655Z,35.73
2022-11-03T04:11:41.160Z,37.43
2022-11-03T04:14:28.788Z,36.83
2022-11-03T04:17:13.895Z,37.87
2022-11-03T04:19:59.056Z,37.03
2022-11-03T04:22:28.940Z,38.77
2022-11-03T04:24:56.540Z,37.50
2022-11-03T04:27:30.081Z,39.27
2022-11-03T04:30:03.118Z,39.10
2022-11-03T04:32:31.265Z,37.93
2022-11-03T04:35:00.495Z,39.10
2022-11-03T04:37:29.407Z,39.50
2022-11-03T04:40:01.065Z,39.03
2022-11-03T04:42:32.078Z,39.77
2022-11-03T04:45:03.218Z,38.97
2022-11-03T04:47:31.581Z,38.67
2022-11-03T04:50:00.338Z,37.47
2022-11-03T04:52:28.096Z,38.40
2022-11-03T04:54:55.653Z,38.80
2022-11-03T04:57:23.176Z,39.60
2022-11-03T04:59:51.544Z,39.30
2022-11-03T05:02:22.209Z,38.20
2022-11-03T05:04:49.839Z,37.90
2022-11-03T05:07:29.496Z,39.30
2022-11-03T05:09:57.215Z,38.43
2022-11-03T05:12:25.001Z,39.33
2022-11-03T05:14:58.059Z,38.17
2022-11-03T05:17:29.150Z,37.10
2022-11-03T05:20:01.049Z,38.63
2022-11-03T05:22:34.749Z,37.60
2022-11-03T05:25:23.523Z,38.40
2022-11-03T05:27:51.129Z,38.63
2022-11-03T05:30:18.757Z,38.83
2022-11-03T05:32:47.682Z,38.47
2022-11-03T05:35:22.232Z,37.10
2022-11-03T05:37:52.008Z,39.30
2022-11-03T05:40:23.529Z,37.20
2022-11-03T05:42:54.616Z,38.83
2022-11-03T05:45:25.421Z,38.03
2022-11-03T05:47:56.251Z,37.77
2022-11-03T05:50:25.972Z,38.03
2022-11-03T05:52:57.260Z,39.70
2022-11-03T05:55:28.802Z,37.33
2022-11-03T05:57:58.451Z,38.80
2022-11-03T06:00:29.687Z,37.50
2022-11-03T06:02:59.594Z,38.20
2022-11-03T06:05:28.108Z,37.30
2022-11-03T06:07:58.609Z,37.90
2022-11-03T06:10:28.323Z,38.07
2022-11-03T06:13:00.884Z,39.20
2022-11-03T06:15:31.816Z,40.23
2022-11-03T06:18:03.669Z,39.17
2022-11-03T06:20:31.228Z,39.20
2022-11-03T06:22:58.777Z,38.27
2022-11-03T06:25:31.224Z,38.60
2022-11-03T06:28:03.152Z,40.37
2022-11-03T06:30:33.424Z,37.53
2022-11-03T06:33:10.840Z,39.33
2022-11-03T06:35:38.487Z,38.10
2022-11-03T06:38:13.593Z,38.83
2022-11-03T06:40:41.155Z,39.70
2022-11-03T06:43:28.666Z,39.00
2022-11-03T06:45:58.689Z,41.90
2022-11-03T06:48:29.989Z,39.50
2022-11-03T06:50:59.878Z,38.77
2022-11-03T06:53:30.609Z,37.40
2022-11-03T06:55:58.361Z,37.90
2022-11-03T06:58:29.658Z,37.60
2022-11-03T07:01:03.397Z,37.37
2022-11-03T07:03:35.181Z,38.37
2022-11-03T07:06:06.888Z,38.87
2022-11-03T07:08:38.239Z,38.27
2022-11-03T07:11:15.315Z,39.87
2022-11-03T07:13:43.281Z,37.50
2022-11-03T07:16:17.841Z,38.17
2022-11-03T07:18:48.628Z,38.53
2022-11-03T07:21:32.131Z,37.93
2022-11-03T07:24:02.436Z,36.77
2022-11-03T07:26:30.153Z,37.00
2022-11-03T07:28:57.717Z,36.60
2022-11-03T07:31:27.232Z,36.57
2022-11-03T07:33:59.395Z,37.77
2022-11-03T07:36:31.668Z,37.97
2022-11-03T07:39:02.375Z,37.27
2022-11-03T07:41:34.625Z,38.13
2022-11-03T07:44:03.393Z,39.50
2022-11-03T07:46:30.976Z,39.37
2022-11-03T07:49:02.643Z,38.30
2022-11-03T07:51:32.446Z,38.50
2022-11-03T07:54:04.600Z,37.50
2022-11-03T07:56:36.484Z,37.60
2022-11-03T07:59:12.590Z,37.27
2022-11-03T08:01:43.953Z,37.60
2022-11-03T08:04:17.769Z,36.70
2022-11-03T08:06:45.293Z,37.97
2022-11-03T08:09:12.853Z,37.23
2022-11-03T08:11:40.424Z,38.47
2022-11-03T08:14:07.951Z,37.93
2022-11-03T08:16:35.536Z,36.83
2022-11-03T08:19:03.061Z,37.03
2022-11-03T08:21:32.003Z,36.40
2022-11-03T08:23:59.662Z,36.70
2022-11-03T08:26:27.340Z,37.50
2022-11-03T08:28:54.888Z,36.70
2022-11-03T08:31:22.439Z,37.23
2022-11-03T08:33:49.980Z,36.80
2022-11-03T08:36:17.720Z,35.77
2022-11-03T08:38:46.658Z,36.90
2022-11-03T08:41:14.213Z,36.23
2022-11-03T08:43:41.769Z,35.63
2022-11-03T08:46:17.243Z,35.70
2022-11-03T08:48:45.893Z,38.30
2022-11-03T08:51:14.653Z,36.00
2022-11-03T08:53:43.448Z,36.63
2022-11-03T08:56:14.202Z,35.50
2022-11-03T08:58:42.834Z,36.90
2022-11-03T09:01:12.028Z,36.70
2022-11-03T09:03:39.742Z,36.13
2022-11-03T09:06:08.349Z,36.70
2022-11-03T09:11:24.803Z,35.60
2022-11-03T09:13:52.391Z,35.93
2022-11-03T09:16:19.918Z,36.70
2022-11-03T09:18:47.547Z,36.27
2022-11-03T09:21:15.516Z,34.43
2022-11-03T09:23:43.177Z,35.83
2022-11-03T09:26:10.711Z,35.73
2022-11-03T09:28:39.579Z,35.93
2022-11-03T09:31:07.562Z,35.30
2022-11-03T09:33:35.198Z,35.50
2022-11-03T09:36:02.780Z,35.00
2022-11-03T09:38:30.360Z,34.07
2022-11-03T09:40:57.966Z,33.27
2022-11-03T09:43:25.518Z,34.90
2022-11-03T09:45:54.620Z,33.90
2022-11-03T09:48:22.228Z,33.70
2022-11-03T09:50:54.087Z,33.93
2022-11-03T09:53:22.423Z,33.50
2022-11-03T09:55:49.984Z,33.80
2022-11-03T09:58:19.076Z,33.23
2022-11-03T10:00:47.112Z,32.63
2022-11-03T10:03:17.974Z,32.43
2022-11-03T10:05:46.663Z,33.20
2022-11-03T10:08:23.019Z,32.27
2022-11-03T10:10:50.876Z,31.70
2022-11-03T10:13:24.719Z,31.23
2022-11-03T10:15:52.353Z,32.60
2022-11-03T10:18:21.282Z,30.90
2022-11-03T10:20:48.915Z,31.83
2022-11-03T10:23:16.447Z,31.53
2022-11-03T10:25:45.270Z,30.67
2022-11-03T10:28:21.248Z,30.97
2022-11-03T10:33:41.624Z,32.23
2022-11-03T10:36:24.503Z,31.80
2022-11-03T10:38:52.643Z,29.47
2022-11-03T10:41:21.776Z,30.50
2022-11-03T10:44:01.747Z,30.10
2022-11-03T10:46:49.285Z,29.93
2022-11-03T10:49:20.749Z,29.00
2022-11-03T10:51:50.837Z,29.60
2022-11-03T10:54:20.697Z,29.40
2022-11-03T10:56:50.436Z,29.63
2022-11-03T10:59:20.401Z,28.90
2022-11-03T11:01:48.238Z,29.23
2022-11-03T11:04:17.356Z,28.57
2022-11-03T11:06:47.178Z,28.30
2022-11-03T11:09:21.721Z,28.17
2022-11-03T11:12:03.537Z,28.93
2022-11-03T11:14:39.118Z,28.20
2022-11-03T11:17:06.948Z,26.40
2022-11-03T11:20:07.908Z,27.70
2022-11-03T11:22:37.182Z,26.43
2022-11-03T11:25:05.182Z,28.10
2022-11-03T11:27:58.840Z,26.77
2022-11-03T11:31:02.756Z,26.43
2022-11-03T11:33:35.194Z,25.53
2022-11-03T11:36:27.950Z,25.37
2022-11-03T11:39:01.562Z,25.43
2022-11-03T11:42:10.750Z,25.73
2022-11-03T11:44:57.631Z,26.80
2022-11-03T11:47:32.072Z,25.23
2022-11-03T11:50:21.335Z,25.43
2022-11-03T11:52:53.918Z,24.37
2022-11-03T11:55:29.771Z,24.60
2022-11-03T11:57:59.448Z,26.40
2022-11-03T12:00:30.126Z,24.83
2022-11-03T12:02:58.925Z,23.17
2022-11-03T12:05:29.164Z,22.90
2022-11-03T12:07:57.164Z,23.30
2022-11-03T12:10:27.918Z,22.17
2022-11-03T12:12:56.315Z,21.70
2022-11-03T12:15:49.959Z,21.40
2022-11-03T12:18:33.992Z,20.50
2022-11-03T12:21:06.980Z,20.70
2022-11-03T12:23:41.128Z,20.03
2022-11-03T12:26:17.681Z,19.80
2022-11-03T12:28:45.651Z,19.70
2022-11-03T12:31:13.658Z,19.63
2022-11-03T12:33:41.392Z,19.30
2022-11-03T12:36:09.977Z,18.80
2022-11-03T12:38:37.631Z,19.57
2022-11-03T12:41:19.184Z,20.10
2022-11-03T12:43:48.714Z,20.07
2022-11-03T12:46:16.565Z,19.90
2022-11-03T12:48:44.741Z,18.90
2022-11-03T12:51:13.261Z,19.23
2022-11-03T12:53:40.903Z,18.83
2022-11-03T12:56:09.862Z,19.13
2022-11-03T12:58:37.735Z,17.90
2022-11-03T13:01:07.635Z,18.80
2022-11-03T13:03:36.620Z,18.23
2022-11-03T13:06:09.873Z,18.03
2022-11-03T13:08:37.782Z,18.60
2022-11-03T13:11:25.720Z,16.77
2022-11-03T13:13:53.529Z,17.40
2022-11-03T13:16:22.750Z,16.57
2022-11-03T13:18:50.358Z,15.97
2022-11-03T13:21:18.201Z,15.50
2022-11-03T13:23:46.202Z,15.33
2022-11-03T13:26:13.819Z,15.53
2022-11-03T13:28:41.536Z,15.10
2022-11-03T13:31:09.344Z,15.50
2022-11-03T13:33:38.335Z,14.83
2022-11-03T13:36:06.657Z,14.43
2022-11-03T13:38:34.473Z,14.70
2022-11-03T13:41:08.099Z,14.27
2022-11-03T13:43:36.658Z,15.30
2022-11-03T13:46:05.019Z,15.40
2022-11-03T13:51:21.904Z,14.13
2022-11-03T14:04:45.079Z,14.07
2022-11-03T14:07:14.387Z,13.67
2022-11-03T14:09:42.084Z,14.00
2022-11-03T14:12:27.032Z,13.40
2022-11-03T14:14:54.674Z,14.03
2022-11-03T14:17:22.362Z,14.30
2022-11-03T14:19:52.718Z,14.37
2022-11-03T14:22:23.348Z,15.07
2022-11-03T14:24:51.447Z,14.50
2022-11-03T14:27:20.322Z,14.60
2022-11-03T14:29:49.674Z,14.40
2022-11-03T14:32:18.472Z,15.20
2022-11-03T14:34:46.940Z,14.80
2022-11-03T14:37:15.080Z,14.13
2022-11-03T14:39:44.136Z,14.10
2022-11-03T14:42:15.204Z,15.20
2022-11-03T14:44:44.539Z,14.47
2022-11-03T14:47:13.438Z,14.40
2022-11-03T14:49:41.079Z,14.50
2022-11-03T14:52:08.965Z,15.33
2022-11-03T14:54:37.326Z,15.77
2022-11-03T14:57:06.582Z,14.57
2022-11-03T14:59:34.884Z,14.47
2022-11-03T15:02:03.803Z,16.00
2022-11-03T15:04:31.606Z,17.60
2022-11-03T15:06:59.187Z,16.80
2022-11-03T15:09:26.760Z,17.10
2022-11-03T15:11:54.352Z,18.27
2022-11-03T15:14:23.542Z,18.07
2022-11-03T15:16:51.108Z,16.47
2022-11-03T15:19:18.685Z,16.60
2022-11-03T15:21:46.220Z,15.40
2022-11-03T15:27:01.296Z,15.70
2022-11-03T15:29:30.544Z,15.87
2022-11-03T15:31:58.312Z,14.50
2022-11-03T15:34:26.515Z,18.23
2022-11-03T15:36:54.421Z,16.30
2022-11-03T15:39:26.818Z,17.13
2022-11-03T15:42:02.130Z,15.80
2022-11-03T15:44:35.576Z,16.23
2022-11-03T15:47:05.449Z,15.57
2022-11-03T15:49:34.509Z,16.43
2022-11-03T15:52:03.023Z,17.97
2022-11-03T15:54:36.240Z,18.03
2022-11-03T15:57:07.979Z,18.13
2022-11-03T15:59:38.618Z,15.90
2022-11-03T16:02:27.816Z,15.87
2022-11-03T16:04:59.276Z,15.60
2022-11-03T16:07:28.294Z,15.67
2022-11-03T16:09:57.002Z,16.30
2022-11-03T16:12:27.962Z,15.57
2022-11-03T16:14:57.417Z,15.67
2022-11-03T16:17:25.007Z,16.30
2022-11-03T16:19:52.536Z,15.60
2022-11-03T16:22:20.099Z,16.13
2022-11-03T16:24:48.570Z,16.20
2022-11-03T16:27:16.165Z,17.47
2022-11-03T16:29:44.189Z,17.40
2022-11-03T16:32:13.142Z,17.23
2022-11-03T16:34:40.753Z,16.40
2022-11-03T16:37:08.402Z,17.30
2022-11-03T16:39:36.009Z,18.03
2022-11-03T16:42:05.061Z,17.10
2022-11-03T16:44:32.694Z,22.03
2022-11-03T16:47:00.397Z,21.93
2022-11-03T16:49:29.277Z,18.90
2022-11-03T16:51:57.379Z,18.47
2022-11-03T16:54:24.946Z,18.27
2022-11-03T16:56:54.897Z,19.10
2022-11-03T16:59:24.285Z,19.03
2022-11-03T17:01:51.936Z,20.87
2022-11-03T17:04:19.614Z,20.77
2022-11-03T17:06:48.512Z,20.90
2022-11-03T17:09:16.045Z,20.17
2022-11-03T17:11:43.629Z,20.10
2022-11-03T17:14:13.661Z,20.67
2022-11-03T17:16:45.250Z,21.20
2022-11-03T17:19:12.947Z,21.97
2022-11-03T17:21:40.510Z,22.37
2022-11-03T17:24:11.148Z,22.37
2022-11-03T17:26:51.136Z,22.53
2022-11-03T17:29:22.308Z,22.10
2022-11-03T17:31:51.336Z,24.10
2022-11-03T17:34:23.628Z,23.50
2022-11-03T17:36:51.769Z,24.27
2022-11-03T17:42:14.465Z,25.80
2022-11-03T17:44:42.056Z,25.27
2022-11-03T17:47:09.616Z,25.60
2022-11-03T17:49:37.256Z,26.53
2022-11-03T17:52:05.226Z,26.70
2022-11-03T17:54:34.187Z,24.77
2022-11-03T17:57:02.802Z,24.93
2022-11-03T17:59:30.432Z,25.70
2022-11-03T18:01:58.214Z,25.90
2022-11-03T18:04:26.718Z,27.23
2022-11-03T18:06:54.272Z,27.30
2022-11-03T18:09:22.076Z,28.17
2022-11-03T18:12:08.559Z,27.77
2022-11-03T18:14:36.148Z,27.77
2022-11-03T18:17:03.813Z,27.77
2022-11-03T18:19:31.711Z,28.20
2022-11-03T18:21:59.776Z,29.73
2022-11-03T18:24:28.204Z,28.70
2022-11-03T18:26:57.157Z,30.00
2022-11-03T18:29:24.696Z,30.10
2022-11-03T18:31:52.301Z,30.27
2022-11-03T18:34:23.505Z,39.60
2022-11-03T18:36:52.516Z,32.87
2022-11-03T18:39:23.235Z,32.67
2022-11-03T18:41:50.839Z,31.90
2022-11-03T18:44:22.323Z,31.70
2022-11-03T18:46:51.220Z,31.10
2022-11-03T18:49:19.701Z,31.47
2022-11-03T18:51:49.932Z,32.60
2022-11-03T18:56:54.250Z,33.33
2022-11-03T18:59:25.521Z,32.93
2022-11-03T19:01:53.756Z,32.43
2022-11-03T19:04:21.761Z,32.00
2022-11-03T19:06:51.773Z,33.70
2022-11-03T19:09:21.853Z,32.40
2022-11-03T19:11:50.821Z,32.60
2022-11-03T19:14:24.677Z,32.80
2022-11-03T19:17:21.226Z,31.70
2022-11-03T19:19:41.052Z,32.90
2022-11-03T19:22:13.107Z,33.03
2022-11-03T19:24:41.232Z,32.53
2022-11-03T19:27:15.068Z,32.60
2022-11-03T19:29:46.862Z,32.80
2022-11-03T19:32:19.415Z,32.33
2022-11-03T19:34:48.115Z,32.13
2022-11-03T19:37:15.680Z,32.60
2022-11-03T19:39:43.267Z,32.70
2022-11-03T19:42:28.260Z,34.00
2022-11-03T19:44:58.120Z,36.53
2022-11-03T19:47:31.553Z,34.97
2022-11-03T19:50:01.347Z,34.37
2022-11-03T19:52:30.931Z,33.90
2022-11-03T19:54:59.401Z,34.53
2022-11-03T19:57:27.201Z,33.93
2022-11-03T19:59:58.708Z,34.20
2022-11-03T20:02:28.853Z,32.73
2022-11-03T20:04:56.509Z,33.43
2022-11-03T20:07:30.957Z,34.57
2022-11-03T20:09:59.937Z,34.23
2022-11-03T20:12:27.518Z,32.93
2022-11-03T20:14:55.057Z,34.13
2022-11-03T20:17:23.840Z,34.90
2022-11-03T20:19:53.212Z,36.00
2022-11-03T20:22:27.387Z,35.90
2022-11-03T20:25:01.329Z,35.30
2022-11-03T20:27:28.969Z,36.77
2022-11-03T20:29:57.151Z,33.77
2022-11-03T20:32:24.699Z,33.80
2022-11-03T20:34:53.567Z,34.00
2022-11-03T20:37:21.976Z,33.27
2022-11-03T20:39:49.888Z,33.83
2022-11-03T20:42:21.501Z,33.03
2022-11-03T20:44:49.131Z,32.90
2022-11-03T20:47:17.796Z,32.00
2022-11-03T20:49:45.428Z,32.50
2022-11-03T20:52:15.388Z,32.63
2022-11-03T20:54:44.132Z,32.07
2022-11-03T20:57:12.924Z,32.20
2022-11-03T20:59:41.264Z,33.63
2022-11-03T21:02:11.707Z,32.53
2022-11-03T21:04:39.567Z,32.40
2022-11-03T21:07:07.359Z,32.50
2022-11-03T21:09:36.256Z,32.87
2022-11-03T21:12:03.932Z,33.00
2022-11-03T21:14:32.752Z,32.33
2022-11-03T21:17:17.771Z,32.10
2022-11-03T21:20:03.549Z,32.80
2022-11-03T21:25:25.015Z,30.40
2022-11-03T21:27:54.133Z,31.80
2022-11-03T21:30:22.400Z,30.70
2022-11-03T21:32:49.931Z,31.10
2022-11-03T21:35:20.015Z,31.60
2022-11-03T21:37:48.017Z,31.43
2022-11-03T21:40:15.836Z,31.27
2022-11-03T21:43:02.494Z,31.20
2022-11-03T21:45:30.069Z,32.30
2022-11-03T21:48:15.279Z,30.97
2022-11-03T21:50:43.529Z,31.47
2022-11-03T21:53:11.826Z,30.87
2022-11-03T21:55:39.837Z,31.87
2022-11-03T21:58:09.209Z,31.97
2022-11-03T22:00:36.796Z,31.90
2022-11-03T22:03:04.454Z,32.07
2022-11-03T22:05:32.009Z,30.10
2022-11-03T22:07:59.585Z,31.63
2022-11-03T22:10:27.152Z,31.53
2022-11-03T22:12:54.666Z,30.77
2022-11-03T22:15:40.895Z,29.40
2022-11-03T22:18:08.888Z,30.60
2022-11-03T22:20:54.628Z,30.37
2022-11-03T22:23:39.899Z,31.00
2022-11-03T22:26:28.659Z,30.07
2022-11-03T22:29:12.312Z,31.27
2022-11-03T22:31:43.956Z,30.70
2022-11-03T22:34:28.956Z,31.77
2022-11-03T22:36:56.524Z,31.17
2022-11-03T22:39:41.511Z,31.10
2022-11-03T22:42:29.850Z,31.37
2022-11-03T22:45:14.781Z,29.73
2022-11-03T22:47:43.686Z,30.27
2022-11-03T22:50:11.244Z,30.80
2022-11-03T22:52:38.835Z,30.53
2022-11-03T22:55:05.689Z,30.87
2022-11-03T22:57:33.223Z,29.20
2022-11-03T23:00:00.742Z,30.47
2022-11-03T23:02:28.332Z,29.40
2022-11-03T23:04:57.240Z,31.33
2022-11-03T23:07:30.841Z,30.00
2022-11-03T23:10:04.535Z,30.90
2022-11-03T23:12:32.437Z,29.27
2022-11-03T23:15:17.404Z,30.30
2022-11-03T23:18:02.472Z,30.10
2022-11-03T23:20:48.887Z,30.80
2022-11-03T23:23:30.347Z,29.80
2022-11-03T23:25:57.890Z,28.90
2022-11-03T23:28:25.473Z,29.57
2022-11-03T23:30:53.019Z,30.30
2022-11-03T23:33:20.622Z,28.87
2022-11-03T23:35:49.491Z,29.27
2022-11-03T23:38:17.033Z,28.97
2022-11-03T23:40:44.575Z,28.50
2022-11-03T23:43:12.120Z,28.97
2022-11-03T23:45:57.123Z,28.40
2022-11-03T23:48:42.037Z,27.97
2022-11-03T23:51:10.915Z,28.27
2022-11-03T23:53:38.451Z,28.70
2022-11-03T23:56:24.172Z,28.07
2022-11-03T23:58:52.510Z,28.93
